BAW29D KEWR-KCLT
Flight info
| Callsign | BAW29D |
|---|---|
| Flight time | 1h 53m |
| Altitude | 38000 |
| Route | BIGGY Q75 GVE AIROW CHSLY6 |
| Aircraft | A20N/M-SDE2E3FGHIRWXY/LB1 |
Departure
| Time | 2026-04-25 19:37 |
|---|---|
| Airport | Newark Liberty International Airport (KEWR) |
Arrival
| Time | 2026-04-25 21:30 |
|---|---|
| Airport | Charlotte Douglas International Airport (KCLT) |
| Time | Latitude | Longitude | Altitude | Speed | Heading |
|---|---|---|---|---|---|
| 2026-04-25 19:11 | 40.68730 | -74.17663 | 30 ft | 0 kts | 358° |
| 2026-04-25 19:29 | 40.68728 | -74.17662 | 30 ft | 3 kts | 358° |
| 2026-04-25 19:29 | 40.68709 | -74.17662 | 29 ft | 3 kts | 358° |
| 2026-04-25 19:29 | 40.68690 | -74.17660 | 26 ft | 2 kts | 6° |
| 2026-04-25 19:30 | 40.68673 | -74.17668 | 26 ft | 2 kts | 34° |
| 2026-04-25 19:30 | 40.68660 | -74.17684 | 25 ft | 3 kts | 46° |
| 2026-04-25 19:30 | 40.68648 | -74.17701 | 30 ft | 3 kts | 46° |
| 2026-04-25 19:30 | 40.68644 | -74.17706 | 28 ft | 0 kts | 46° |
| 2026-04-25 19:32 | 40.68650 | -74.17691 | 25 ft | 1 kts | 94° |
| 2026-04-25 19:32 | 40.68637 | -74.17660 | 28 ft | 6 kts | 118° |
| 2026-04-25 19:32 | 40.68629 | -74.17640 | 26 ft | 8 kts | 118° |
| 2026-04-25 19:33 | 40.68554 | -74.17580 | 28 ft | 9 kts | 207° |
| 2026-04-25 19:33 | 40.68480 | -74.17626 | 28 ft | 14 kts | 206° |
| 2026-04-25 19:33 | 40.68372 | -74.17696 | 27 ft | 21 kts | 207° |
| 2026-04-25 19:33 | 40.68223 | -74.17791 | 24 ft | 26 kts | 205° |
| 2026-04-25 19:34 | 40.68109 | -74.17863 | 25 ft | 12 kts | 204° |
| 2026-04-25 19:34 | 40.68028 | -74.17910 | 25 ft | 12 kts | 205° |
| 2026-04-25 19:34 | 40.67955 | -74.17958 | 27 ft | 11 kts | 208° |
| 2026-04-25 19:34 | 40.67884 | -74.18005 | 27 ft | 12 kts | 207° |
| 2026-04-25 19:35 | 40.67833 | -74.18039 | 27 ft | 13 kts | 206° |
| 2026-04-25 19:35 | 40.67739 | -74.18093 | 28 ft | 14 kts | 208° |
| 2026-04-25 19:35 | 40.67653 | -74.18120 | 27 ft | 13 kts | 150° |
| 2026-04-25 19:35 | 40.67585 | -74.18023 | 26 ft | 15 kts | 128° |
| 2026-04-25 19:36 | 40.67589 | -74.17907 | 27 ft | 9 kts | 25° |
| 2026-04-25 19:36 | 40.67597 | -74.17902 | 27 ft | 0 kts | 25° |
| 2026-04-25 19:36 | 40.67824 | -74.17761 | 22 ft | 82 kts | 25° |
| 2026-04-25 19:36 | 40.68641 | -74.17245 | 42 ft | 172 kts | 25° |
| 2026-04-25 19:37 | 40.69813 | -74.16527 | 716 ft | 194 kts | 24° |
| 2026-04-25 19:37 | 40.71201 | -74.15980 | 1487 ft | 223 kts | 3° |
| 2026-04-25 19:37 | 40.72737 | -74.16509 | 2422 ft | 240 kts | 328° |
| 2026-04-25 19:37 | 40.73872 | -74.18175 | 3388 ft | 255 kts | 292° |
| 2026-04-25 19:38 | 40.73901 | -74.20510 | 4430 ft | 266 kts | 248° |
| 2026-04-25 19:38 | 40.72756 | -74.22421 | 5458 ft | 280 kts | 218° |
| 2026-04-25 19:38 | 40.71175 | -74.23831 | 6950 ft | 268 kts | 212° |
| 2026-04-25 19:38 | 40.69582 | -74.25034 | 8407 ft | 263 kts | 209° |
| 2026-04-25 19:39 | 40.68050 | -74.26332 | 9616 ft | 261 kts | 216° |
| 2026-04-25 19:39 | 40.66635 | -74.27821 | 10817 ft | 260 kts | 224° |
| 2026-04-25 19:39 | 40.65498 | -74.29719 | 11757 ft | 271 kts | 239° |
| 2026-04-25 19:39 | 40.64653 | -74.31955 | 12834 ft | 270 kts | 248° |
| 2026-04-25 19:40 | 40.63986 | -74.34219 | 14194 ft | 259 kts | 250° |
| 2026-04-25 19:40 | 40.63380 | -74.36400 | 15452 ft | 248 kts | 250° |
| 2026-04-25 19:40 | 40.62776 | -74.38501 | 16526 ft | 243 kts | 249° |
| 2026-04-25 19:40 | 40.62141 | -74.40564 | 17418 ft | 244 kts | 247° |
| 2026-04-25 19:41 | 40.61466 | -74.42626 | 18216 ft | 247 kts | 246° |
| 2026-04-25 19:41 | 40.60755 | -74.44698 | 18992 ft | 250 kts | 245° |
| 2026-04-25 19:41 | 40.60021 | -74.46784 | 19747 ft | 253 kts | 245° |
| 2026-04-25 19:41 | 40.59524 | -74.48177 | 20249 ft | 255 kts | 245° |
| 2026-04-25 19:42 | 40.58504 | -74.51031 | 21207 ft | 260 kts | 245° |
| 2026-04-25 19:42 | 40.57728 | -74.53199 | 21894 ft | 264 kts | 245° |
| 2026-04-25 19:42 | 40.56953 | -74.55371 | 22549 ft | 267 kts | 245° |
| 2026-04-25 19:42 | 40.56158 | -74.57601 | 23192 ft | 271 kts | 245° |
| 2026-04-25 19:43 | 40.55352 | -74.59865 | 23820 ft | 275 kts | 245° |
| 2026-04-25 19:43 | 40.54535 | -74.62160 | 24422 ft | 279 kts | 245° |
| 2026-04-25 19:43 | 40.53707 | -74.64486 | 25010 ft | 282 kts | 245° |
| 2026-04-25 19:43 | 40.52870 | -74.66836 | 25583 ft | 286 kts | 245° |
| 2026-04-25 19:44 | 40.52019 | -74.69221 | 26138 ft | 290 kts | 245° |
| 2026-04-25 19:44 | 40.51159 | -74.71632 | 26677 ft | 293 kts | 245° |
| 2026-04-25 19:44 | 40.50285 | -74.74077 | 27204 ft | 297 kts | 245° |
| 2026-04-25 19:44 | 40.49413 | -74.76516 | 27704 ft | 300 kts | 245° |
| 2026-04-25 19:45 | 40.48520 | -74.79011 | 28183 ft | 305 kts | 245° |
| 2026-04-25 19:45 | 40.47601 | -74.81575 | 28473 ft | 315 kts | 245° |
| 2026-04-25 19:45 | 40.46667 | -74.84180 | 29028 ft | 314 kts | 245° |
| 2026-04-25 19:45 | 40.45734 | -74.86779 | 29571 ft | 314 kts | 245° |
| 2026-04-25 19:46 | 40.44799 | -74.89383 | 30048 ft | 316 kts | 245° |
| 2026-04-25 19:46 | 40.43854 | -74.92012 | 30478 ft | 319 kts | 245° |
| 2026-04-25 19:46 | 40.42900 | -74.94664 | 30880 ft | 322 kts | 245° |
| 2026-04-25 19:46 | 40.41787 | -74.97228 | 31253 ft | 325 kts | 231° |
| 2026-04-25 19:47 | 40.40332 | -74.99471 | 31630 ft | 328 kts | 230° |
| 2026-04-25 19:47 | 40.38821 | -75.01729 | 32010 ft | 331 kts | 228° |
| 2026-04-25 19:47 | 40.37260 | -75.03966 | 32370 ft | 333 kts | 227° |
| 2026-04-25 19:47 | 40.35667 | -75.06198 | 32711 ft | 336 kts | 227° |
| 2026-04-25 19:48 | 40.34053 | -75.08439 | 33053 ft | 339 kts | 227° |
| 2026-04-25 19:48 | 40.32438 | -75.10677 | 33598 ft | 339 kts | 231° |
| 2026-04-25 19:48 | 40.30859 | -75.12862 | 34556 ft | 319 kts | 232° |
| 2026-04-25 19:48 | 40.29360 | -75.14934 | 35275 ft | 310 kts | 233° |
| 2026-04-25 19:49 | 40.27878 | -75.16999 | 35540 ft | 313 kts | 233° |
| 2026-04-25 19:49 | 40.26891 | -75.18386 | 35664 ft | 316 kts | 233° |
| 2026-04-25 19:49 | 40.24871 | -75.21226 | 35953 ft | 320 kts | 233° |
| 2026-04-25 19:49 | 40.23340 | -75.23374 | 36196 ft | 323 kts | 233° |
| 2026-04-25 19:50 | 40.20268 | -75.27668 | 36660 ft | 327 kts | 233° |
| 2026-04-25 19:50 | 40.18704 | -75.29849 | 36871 ft | 330 kts | 234° |
| 2026-04-25 19:50 | 40.17126 | -75.32046 | 37092 ft | 332 kts | 234° |
| 2026-04-25 19:51 | 40.15538 | -75.34256 | 37316 ft | 334 kts | 234° |
| 2026-04-25 19:51 | 40.13939 | -75.36478 | 37547 ft | 336 kts | 234° |
| 2026-04-25 19:51 | 40.12331 | -75.38713 | 37767 ft | 338 kts | 234° |
| 2026-04-25 19:51 | 40.10709 | -75.40964 | 37985 ft | 341 kts | 234° |
| 2026-04-25 19:52 | 40.09071 | -75.43238 | 38067 ft | 347 kts | 234° |
| 2026-04-25 19:52 | 40.05692 | -75.47936 | 38032 ft | 362 kts | 234° |
| 2026-04-25 19:53 | 40.02159 | -75.52833 | 38028 ft | 377 kts | 233° |
| 2026-04-25 19:53 | 39.98544 | -75.57811 | 38021 ft | 377 kts | 233° |
| 2026-04-25 19:54 | 39.94954 | -75.62746 | 38029 ft | 377 kts | 233° |
| 2026-04-25 19:54 | 39.91373 | -75.67741 | 38030 ft | 375 kts | 235° |
| 2026-04-25 19:55 | 39.88039 | -75.72939 | 38030 ft | 373 kts | 238° |
| 2026-04-25 19:55 | 39.84793 | -75.78221 | 38028 ft | 373 kts | 238° |
| 2026-04-25 19:56 | 39.81568 | -75.83437 | 38030 ft | 371 kts | 237° |
| 2026-04-25 19:56 | 39.78315 | -75.88640 | 38025 ft | 370 kts | 237° |
| 2026-04-25 19:57 | 39.75063 | -75.93815 | 38022 ft | 370 kts | 237° |
| 2026-04-25 19:57 | 39.71806 | -75.98986 | 38018 ft | 369 kts | 237° |
| 2026-04-25 19:58 | 39.68568 | -76.04121 | 38017 ft | 369 kts | 237° |
| 2026-04-25 19:58 | 39.65307 | -76.09285 | 38011 ft | 369 kts | 237° |
| 2026-04-25 19:59 | 39.62044 | -76.14443 | 38015 ft | 369 kts | 237° |
| 2026-04-25 19:59 | 39.59053 | -76.19137 | 38012 ft | 367 kts | 237° |
| 2026-04-25 20:00 | 39.55770 | -76.24198 | 38001 ft | 366 kts | 236° |
| 2026-04-25 20:00 | 39.52481 | -76.29244 | 38004 ft | 366 kts | 236° |
| 2026-04-25 20:01 | 39.47571 | -76.36772 | 37992 ft | 366 kts | 236° |
| 2026-04-25 20:01 | 39.44133 | -76.41676 | 37981 ft | 369 kts | 233° |
| 2026-04-25 20:02 | 39.40495 | -76.46415 | 37987 ft | 372 kts | 232° |
| 2026-04-25 20:02 | 39.36821 | -76.51141 | 38017 ft | 372 kts | 232° |
| 2026-04-25 20:03 | 39.33196 | -76.55837 | 38005 ft | 370 kts | 232° |
| 2026-04-25 20:03 | 39.29565 | -76.60563 | 37973 ft | 370 kts | 232° |
| 2026-04-25 20:04 | 39.25939 | -76.65288 | 37942 ft | 370 kts | 232° |
| 2026-04-25 20:04 | 39.22305 | -76.70015 | 37967 ft | 372 kts | 232° |
| 2026-04-25 20:05 | 39.18654 | -76.74755 | 37972 ft | 372 kts | 232° |
| 2026-04-25 20:05 | 39.15018 | -76.79464 | 37990 ft | 372 kts | 232° |
| 2026-04-25 20:06 | 39.11364 | -76.84190 | 37988 ft | 372 kts | 232° |
| 2026-04-25 20:06 | 39.07707 | -76.88914 | 37967 ft | 371 kts | 232° |
| 2026-04-25 20:07 | 39.04066 | -76.93607 | 37971 ft | 370 kts | 232° |
| 2026-04-25 20:07 | 39.00446 | -76.98270 | 37969 ft | 370 kts | 232° |
| 2026-04-25 20:08 | 38.96804 | -77.02958 | 37971 ft | 370 kts | 232° |
| 2026-04-25 20:08 | 38.93163 | -77.07642 | 37936 ft | 370 kts | 232° |
| 2026-04-25 20:09 | 38.89521 | -77.12321 | 37931 ft | 370 kts | 232° |
| 2026-04-25 20:09 | 38.85881 | -77.16990 | 37918 ft | 370 kts | 232° |
| 2026-04-25 20:10 | 38.82257 | -77.21631 | 37900 ft | 370 kts | 232° |
| 2026-04-25 20:10 | 38.78609 | -77.26292 | 37899 ft | 369 kts | 232° |
| 2026-04-25 20:11 | 38.74975 | -77.30929 | 37897 ft | 368 kts | 232° |
| 2026-04-25 20:11 | 38.71286 | -77.35493 | 37924 ft | 369 kts | 230° |
| 2026-04-25 20:12 | 38.67499 | -77.39880 | 37927 ft | 372 kts | 229° |
| 2026-04-25 20:12 | 38.64885 | -77.42877 | 37922 ft | 382 kts | 229° |
| 2026-04-25 20:13 | 38.59625 | -77.48900 | 37919 ft | 375 kts | 229° |
| 2026-04-25 20:13 | 38.55763 | -77.53332 | 37922 ft | 372 kts | 229° |
| 2026-04-25 20:14 | 38.51914 | -77.57762 | 37926 ft | 372 kts | 229° |
| 2026-04-25 20:14 | 38.48075 | -77.62176 | 37925 ft | 370 kts | 229° |
| 2026-04-25 20:15 | 38.44284 | -77.66522 | 37922 ft | 369 kts | 229° |
| 2026-04-25 20:15 | 38.40464 | -77.70898 | 37925 ft | 369 kts | 229° |
| 2026-04-25 20:16 | 38.36638 | -77.75272 | 37919 ft | 369 kts | 229° |
| 2026-04-25 20:16 | 38.32808 | -77.79645 | 37914 ft | 369 kts | 229° |
| 2026-04-25 20:17 | 38.29008 | -77.83976 | 37907 ft | 369 kts | 229° |
| 2026-04-25 20:17 | 38.25181 | -77.88330 | 37892 ft | 369 kts | 229° |
| 2026-04-25 20:18 | 38.21342 | -77.92695 | 37915 ft | 370 kts | 229° |
| 2026-04-25 20:18 | 38.17498 | -77.97057 | 37913 ft | 370 kts | 229° |
| 2026-04-25 20:19 | 38.13668 | -78.01394 | 37899 ft | 368 kts | 229° |
| 2026-04-25 20:19 | 38.09842 | -78.05722 | 37887 ft | 368 kts | 229° |
| 2026-04-25 20:20 | 38.06020 | -78.10041 | 37893 ft | 368 kts | 229° |
| 2026-04-25 20:20 | 38.02206 | -78.14368 | 37895 ft | 367 kts | 230° |
| 2026-04-25 20:21 | 37.98762 | -78.19041 | 37912 ft | 365 kts | 233° |
| 2026-04-25 20:21 | 37.95381 | -78.23832 | 37884 ft | 364 kts | 234° |
| 2026-04-25 20:22 | 37.93123 | -78.27042 | 37881 ft | 364 kts | 234° |
| 2026-04-25 20:22 | 37.89196 | -78.32622 | 37881 ft | 364 kts | 234° |
| 2026-04-25 20:23 | 37.85274 | -78.38188 | 37873 ft | 364 kts | 234° |
| 2026-04-25 20:23 | 37.81899 | -78.42971 | 37870 ft | 364 kts | 234° |
| 2026-04-25 20:24 | 37.79089 | -78.46946 | 37865 ft | 364 kts | 234° |
| 2026-04-25 20:24 | 37.75709 | -78.51722 | 37864 ft | 364 kts | 234° |
| 2026-04-25 20:25 | 37.72330 | -78.56490 | 37862 ft | 364 kts | 234° |
| 2026-04-25 20:25 | 37.68949 | -78.61254 | 37862 ft | 364 kts | 234° |
| 2026-04-25 20:26 | 37.65569 | -78.66010 | 37862 ft | 363 kts | 234° |
| 2026-04-25 20:26 | 37.62204 | -78.70738 | 37858 ft | 366 kts | 234° |
| 2026-04-25 20:27 | 37.58788 | -78.75531 | 37856 ft | 368 kts | 233° |
| 2026-04-25 20:27 | 37.55358 | -78.80333 | 37850 ft | 368 kts | 233° |
| 2026-04-25 20:28 | 37.51927 | -78.85130 | 37854 ft | 368 kts | 233° |
| 2026-04-25 20:28 | 37.48499 | -78.89918 | 37871 ft | 367 kts | 233° |
| 2026-04-25 20:29 | 37.45075 | -78.94692 | 37865 ft | 367 kts | 233° |
| 2026-04-25 20:29 | 37.41667 | -78.99436 | 37882 ft | 368 kts | 234° |
| 2026-04-25 20:30 | 37.38234 | -79.04210 | 37893 ft | 368 kts | 234° |
| 2026-04-25 20:30 | 37.34796 | -79.08982 | 37906 ft | 366 kts | 233° |
| 2026-04-25 20:31 | 37.31402 | -79.13687 | 37906 ft | 365 kts | 233° |
| 2026-04-25 20:31 | 37.27988 | -79.18413 | 37907 ft | 365 kts | 233° |
| 2026-04-25 20:32 | 37.24466 | -79.23032 | 37831 ft | 369 kts | 227° |
| 2026-04-25 20:32 | 37.20327 | -79.26952 | 37825 ft | 374 kts | 222° |
| 2026-04-25 20:33 | 37.16085 | -79.30759 | 37836 ft | 375 kts | 222° |
| 2026-04-25 20:33 | 37.12556 | -79.33928 | 37828 ft | 375 kts | 222° |
| 2026-04-25 20:34 | 37.07618 | -79.38364 | 37830 ft | 375 kts | 222° |
| 2026-04-25 20:34 | 37.03367 | -79.42182 | 37823 ft | 375 kts | 222° |
| 2026-04-25 20:35 | 36.99086 | -79.45891 | 37823 ft | 372 kts | 221° |
| 2026-04-25 20:35 | 36.94821 | -79.49492 | 37830 ft | 372 kts | 221° |
| 2026-04-25 20:36 | 36.90526 | -79.53115 | 37829 ft | 371 kts | 221° |
| 2026-04-25 20:36 | 36.86244 | -79.56724 | 37824 ft | 371 kts | 221° |
| 2026-04-25 20:37 | 36.81959 | -79.60331 | 37831 ft | 371 kts | 221° |
| 2026-04-25 20:37 | 36.77694 | -79.63912 | 37798 ft | 371 kts | 221° |
| 2026-04-25 20:38 | 36.73388 | -79.67522 | 37828 ft | 373 kts | 221° |
| 2026-04-25 20:38 | 36.69073 | -79.71133 | 37854 ft | 374 kts | 221° |
| 2026-04-25 20:39 | 36.64749 | -79.74746 | 37867 ft | 374 kts | 221° |
| 2026-04-25 20:39 | 36.61155 | -79.77746 | 37873 ft | 374 kts | 221° |
| 2026-04-25 20:40 | 36.56129 | -79.81934 | 37472 ft | 371 kts | 220° |
| 2026-04-25 20:40 | 36.53988 | -79.83715 | 36906 ft | 370 kts | 220° |
| 2026-04-25 20:40 | 36.51844 | -79.85500 | 36311 ft | 371 kts | 220° |
| 2026-04-25 20:41 | 36.49694 | -79.87290 | 35720 ft | 372 kts | 219° |
| 2026-04-25 20:41 | 36.47538 | -79.89081 | 35149 ft | 373 kts | 219° |
| 2026-04-25 20:41 | 36.45373 | -79.90879 | 34553 ft | 374 kts | 218° |
| 2026-04-25 20:41 | 36.43205 | -79.92678 | 33956 ft | 375 kts | 218° |
| 2026-04-25 20:42 | 36.41027 | -79.94484 | 33276 ft | 377 kts | 217° |
| 2026-04-25 20:42 | 36.38838 | -79.96298 | 32566 ft | 379 kts | 217° |
| 2026-04-25 20:42 | 36.36670 | -79.98092 | 31934 ft | 379 kts | 217° |
| 2026-04-25 20:42 | 36.34479 | -79.99904 | 31377 ft | 378 kts | 217° |
| 2026-04-25 20:43 | 36.32298 | -80.01704 | 30846 ft | 375 kts | 217° |
| 2026-04-25 20:43 | 36.30123 | -80.03500 | 30273 ft | 375 kts | 217° |
| 2026-04-25 20:43 | 36.27956 | -80.05286 | 29738 ft | 372 kts | 216° |
| 2026-04-25 20:43 | 36.25802 | -80.07061 | 29172 ft | 370 kts | 216° |
| 2026-04-25 20:44 | 36.23664 | -80.08822 | 28631 ft | 367 kts | 216° |
| 2026-04-25 20:44 | 36.21570 | -80.10545 | 28125 ft | 364 kts | 216° |
| 2026-04-25 20:44 | 36.19466 | -80.12277 | 27605 ft | 361 kts | 216° |
| 2026-04-25 20:44 | 36.17377 | -80.13995 | 27099 ft | 359 kts | 216° |
| 2026-04-25 20:45 | 36.15302 | -80.15700 | 26604 ft | 356 kts | 216° |
| 2026-04-25 20:45 | 36.13242 | -80.17392 | 26122 ft | 354 kts | 216° |
| 2026-04-25 20:45 | 36.11189 | -80.19077 | 25612 ft | 353 kts | 216° |
| 2026-04-25 20:45 | 36.09146 | -80.20754 | 25136 ft | 351 kts | 216° |
| 2026-04-25 20:46 | 36.07118 | -80.22416 | 24697 ft | 347 kts | 216° |
| 2026-04-25 20:46 | 36.05108 | -80.24062 | 24225 ft | 346 kts | 216° |
| 2026-04-25 20:46 | 36.03133 | -80.25680 | 23783 ft | 344 kts | 216° |
| 2026-04-25 20:46 | 36.01135 | -80.27314 | 23299 ft | 343 kts | 216° |
| 2026-04-25 20:47 | 35.99151 | -80.28938 | 22757 ft | 341 kts | 216° |
| 2026-04-25 20:47 | 35.97178 | -80.30551 | 22220 ft | 339 kts | 216° |
| 2026-04-25 20:47 | 35.95218 | -80.32152 | 21900 ft | 337 kts | 216° |
| 2026-04-25 20:47 | 35.93259 | -80.33752 | 21853 ft | 338 kts | 216° |
| 2026-04-25 20:48 | 35.91298 | -80.35353 | 21855 ft | 338 kts | 216° |
| 2026-04-25 20:48 | 35.89334 | -80.36955 | 21851 ft | 338 kts | 216° |
| 2026-04-25 20:48 | 35.87372 | -80.38553 | 21852 ft | 337 kts | 216° |
| 2026-04-25 20:48 | 35.85437 | -80.40127 | 21842 ft | 331 kts | 216° |
| 2026-04-25 20:49 | 35.83550 | -80.41685 | 21850 ft | 327 kts | 218° |
| 2026-04-25 20:49 | 35.81731 | -80.43363 | 21852 ft | 326 kts | 220° |
| 2026-04-25 20:49 | 35.79940 | -80.45083 | 21851 ft | 326 kts | 220° |
| 2026-04-25 20:49 | 35.78155 | -80.46810 | 21854 ft | 326 kts | 220° |
| 2026-04-25 20:50 | 35.76371 | -80.48534 | 21859 ft | 326 kts | 220° |
| 2026-04-25 20:50 | 35.74467 | -80.50062 | 21859 ft | 329 kts | 208° |
| 2026-04-25 20:50 | 35.72346 | -80.51062 | 21861 ft | 331 kts | 202° |
| 2026-04-25 20:50 | 35.70191 | -80.51898 | 21852 ft | 317 kts | 201° |
| 2026-04-25 20:51 | 35.68114 | -80.52678 | 21853 ft | 307 kts | 201° |
| 2026-04-25 20:51 | 35.66079 | -80.53447 | 21859 ft | 305 kts | 201° |
| 2026-04-25 20:51 | 35.64052 | -80.54221 | 21862 ft | 305 kts | 201° |
| 2026-04-25 20:51 | 35.62023 | -80.54998 | 21861 ft | 305 kts | 201° |
| 2026-04-25 20:52 | 35.59998 | -80.55783 | 21640 ft | 303 kts | 203° |
| 2026-04-25 20:52 | 35.58740 | -80.56484 | 21349 ft | 299 kts | 216° |
| 2026-04-25 20:52 | 35.57114 | -80.59076 | 20927 ft | 286 kts | 254° |
| 2026-04-25 20:52 | 35.56863 | -80.61461 | 20763 ft | 278 kts | 266° |
| 2026-04-25 20:53 | 35.56830 | -80.63772 | 20585 ft | 271 kts | 268° |
| 2026-04-25 20:53 | 35.56826 | -80.66074 | 20303 ft | 268 kts | 268° |
| 2026-04-25 20:53 | 35.56817 | -80.68354 | 19990 ft | 266 kts | 267° |
| 2026-04-25 20:53 | 35.56801 | -80.70623 | 19659 ft | 265 kts | 267° |
| 2026-04-25 20:54 | 35.56780 | -80.72884 | 19331 ft | 264 kts | 267° |
| 2026-04-25 20:54 | 35.56757 | -80.75136 | 19002 ft | 263 kts | 267° |
| 2026-04-25 20:54 | 35.56681 | -80.77366 | 18519 ft | 268 kts | 263° |
| 2026-04-25 20:54 | 35.56455 | -80.79688 | 17801 ft | 280 kts | 261° |
| 2026-04-25 20:55 | 35.56160 | -80.82111 | 17003 ft | 291 kts | 257° |
| 2026-04-25 20:55 | 35.55545 | -80.84517 | 16264 ft | 299 kts | 244° |
| 2026-04-25 20:55 | 35.54372 | -80.86626 | 15672 ft | 301 kts | 225° |
| 2026-04-25 20:55 | 35.52776 | -80.88297 | 15191 ft | 300 kts | 218° |
| 2026-04-25 20:56 | 35.51095 | -80.89806 | 14762 ft | 298 kts | 216° |
| 2026-04-25 20:56 | 35.49427 | -80.91251 | 14325 ft | 296 kts | 216° |
| 2026-04-25 20:56 | 35.47753 | -80.92691 | 13993 ft | 291 kts | 216° |
| 2026-04-25 20:56 | 35.46091 | -80.94092 | 13567 ft | 289 kts | 213° |
| 2026-04-25 20:57 | 35.44263 | -80.95107 | 13061 ft | 289 kts | 196° |
| 2026-04-25 20:57 | 35.42253 | -80.95339 | 12579 ft | 290 kts | 181° |
| 2026-04-25 20:57 | 35.40255 | -80.95207 | 12287 ft | 284 kts | 179° |
| 2026-04-25 20:57 | 35.38343 | -80.95024 | 12206 ft | 273 kts | 178° |
| 2026-04-25 20:58 | 35.36487 | -80.94845 | 12099 ft | 262 kts | 179° |
| 2026-04-25 20:58 | 35.34679 | -80.94678 | 11738 ft | 261 kts | 179° |
| 2026-04-25 20:58 | 35.32838 | -80.94515 | 11092 ft | 269 kts | 179° |
| 2026-04-25 20:58 | 35.30938 | -80.94350 | 10407 ft | 278 kts | 178° |
| 2026-04-25 20:59 | 35.28964 | -80.94180 | 9557 ft | 290 kts | 178° |
| 2026-04-25 20:59 | 35.26934 | -80.94004 | 8627 ft | 293 kts | 178° |
| 2026-04-25 20:59 | 35.24915 | -80.93815 | 8039 ft | 285 kts | 175° |
| 2026-04-25 20:59 | 35.23097 | -80.93046 | 7743 ft | 273 kts | 150° |
| 2026-04-25 21:00 | 35.21826 | -80.91393 | 7488 ft | 265 kts | 122° |
| 2026-04-25 21:00 | 35.21580 | -80.90729 | 7387 ft | 263 kts | 111° |
| 2026-04-25 21:00 | 35.21279 | -80.84983 | 6492 ft | 248 kts | 95° |
| 2026-04-25 21:01 | 35.21196 | -80.82884 | 6115 ft | 245 kts | 95° |
| 2026-04-25 21:01 | 35.21110 | -80.80802 | 5980 ft | 246 kts | 95° |
| 2026-04-25 21:01 | 35.21024 | -80.78703 | 5973 ft | 247 kts | 95° |
| 2026-04-25 21:01 | 35.20945 | -80.76609 | 5974 ft | 246 kts | 95° |
| 2026-04-25 21:02 | 35.20871 | -80.74521 | 5972 ft | 246 kts | 95° |
| 2026-04-25 21:02 | 35.20786 | -80.72429 | 5976 ft | 246 kts | 95° |
| 2026-04-25 21:02 | 35.20700 | -80.70339 | 5974 ft | 246 kts | 95° |
| 2026-04-25 21:02 | 35.20630 | -80.68247 | 5976 ft | 247 kts | 93° |
| 2026-04-25 21:03 | 35.20380 | -80.66217 | 5982 ft | 243 kts | 111° |
| 2026-04-25 21:03 | 35.19949 | -80.64221 | 5976 ft | 243 kts | 103° |
| 2026-04-25 21:03 | 35.19721 | -80.62176 | 5967 ft | 244 kts | 97° |
| 2026-04-25 21:03 | 35.19625 | -80.60094 | 5959 ft | 246 kts | 93° |
| 2026-04-25 21:04 | 35.19617 | -80.57995 | 5966 ft | 247 kts | 91° |
| 2026-04-25 21:04 | 35.19660 | -80.55899 | 5959 ft | 246 kts | 89° |
| 2026-04-25 21:04 | 35.19732 | -80.53807 | 5957 ft | 247 kts | 89° |
| 2026-04-25 21:04 | 35.19817 | -80.51709 | 5962 ft | 248 kts | 88° |
| 2026-04-25 21:05 | 35.19911 | -80.49596 | 5962 ft | 250 kts | 88° |
| 2026-04-25 21:05 | 35.20015 | -80.47343 | 5977 ft | 279 kts | 88° |
| 2026-04-25 21:05 | 35.20125 | -80.44923 | 5961 ft | 289 kts | 89° |
| 2026-04-25 21:05 | 35.19894 | -80.42491 | 5960 ft | 289 kts | 110° |
| 2026-04-25 21:06 | 35.18878 | -80.40431 | 5954 ft | 282 kts | 138° |
| 2026-04-25 21:06 | 35.17235 | -80.39214 | 5955 ft | 274 kts | 166° |
| 2026-04-25 21:06 | 35.15398 | -80.39049 | 5954 ft | 267 kts | 192° |
| 2026-04-25 21:06 | 35.14786 | -80.39223 | 5948 ft | 265 kts | 200° |
| 2026-04-25 21:07 | 35.12488 | -80.41504 | 5956 ft | 260 kts | 242° |
| 2026-04-25 21:07 | 35.11899 | -80.43584 | 5948 ft | 261 kts | 258° |
| 2026-04-25 21:07 | 35.11649 | -80.45779 | 5953 ft | 261 kts | 262° |
| 2026-04-25 21:07 | 35.11450 | -80.47982 | 5953 ft | 260 kts | 262° |
| 2026-04-25 21:08 | 35.11289 | -80.50189 | 5956 ft | 262 kts | 265° |
| 2026-04-25 21:08 | 35.11121 | -80.52405 | 5952 ft | 262 kts | 264° |
| 2026-04-25 21:08 | 35.11253 | -80.54624 | 5959 ft | 265 kts | 282° |
| 2026-04-25 21:08 | 35.12070 | -80.56614 | 5951 ft | 271 kts | 306° |
| 2026-04-25 21:09 | 35.15454 | -80.58383 | 5946 ft | 281 kts | 3° |
| 2026-04-25 21:09 | 35.17327 | -80.57639 | 5962 ft | 288 kts | 29° |
| 2026-04-25 21:09 | 35.18761 | -80.55936 | 5961 ft | 291 kts | 58° |
| 2026-04-25 21:10 | 35.19273 | -80.54429 | 5961 ft | 290 kts | 76° |
| 2026-04-25 21:10 | 35.19595 | -80.51989 | 5959 ft | 291 kts | 84° |
| 2026-04-25 21:10 | 35.19790 | -80.49524 | 5961 ft | 292 kts | 85° |
| 2026-04-25 21:10 | 35.19977 | -80.47047 | 5963 ft | 292 kts | 85° |
| 2026-04-25 21:11 | 35.20140 | -80.44573 | 5953 ft | 291 kts | 90° |
| 2026-04-25 21:11 | 35.19819 | -80.42161 | 5954 ft | 287 kts | 114° |
| 2026-04-25 21:11 | 35.18703 | -80.40230 | 5957 ft | 281 kts | 142° |
| 2026-04-25 21:11 | 35.17126 | -80.38831 | 5953 ft | 280 kts | 144° |
| 2026-04-25 21:12 | 35.15978 | -80.36907 | 5952 ft | 287 kts | 111° |
| 2026-04-25 21:12 | 35.15850 | -80.34516 | 5961 ft | 278 kts | 77° |
| 2026-04-25 21:12 | 35.16659 | -80.32495 | 5969 ft | 254 kts | 50° |
| 2026-04-25 21:12 | 35.17467 | -80.31520 | 5916 ft | 240 kts | 36° |
| 2026-04-25 21:13 | 35.19377 | -80.30421 | 5694 ft | 217 kts | 9° |
| 2026-04-25 21:13 | 35.20819 | -80.30322 | 5543 ft | 200 kts | 350° |
| 2026-04-25 21:13 | 35.22105 | -80.30729 | 5296 ft | 189 kts | 331° |
| 2026-04-25 21:13 | 35.23182 | -80.31562 | 5048 ft | 179 kts | 315° |
| 2026-04-25 21:14 | 35.24051 | -80.32631 | 4767 ft | 176 kts | 308° |
| 2026-04-25 21:14 | 35.24861 | -80.33752 | 4493 ft | 176 kts | 307° |
| 2026-04-25 21:14 | 35.25672 | -80.34887 | 4459 ft | 182 kts | 307° |
| 2026-04-25 21:14 | 35.26594 | -80.36178 | 4894 ft | 221 kts | 307° |
| 2026-04-25 21:15 | 35.27679 | -80.37676 | 5536 ft | 253 kts | 308° |
| 2026-04-25 21:15 | 35.28899 | -80.39331 | 5891 ft | 267 kts | 309° |
| 2026-04-25 21:15 | 35.30155 | -80.41023 | 5960 ft | 268 kts | 309° |
| 2026-04-25 21:15 | 35.31412 | -80.42719 | 5962 ft | 269 kts | 309° |
| 2026-04-25 21:16 | 35.32667 | -80.44419 | 5960 ft | 269 kts | 309° |
| 2026-04-25 21:16 | 35.33932 | -80.46138 | 5961 ft | 274 kts | 308° |
| 2026-04-25 21:16 | 35.35219 | -80.47894 | 5968 ft | 279 kts | 309° |
| 2026-04-25 21:16 | 35.36519 | -80.49666 | 5970 ft | 280 kts | 309° |
| 2026-04-25 21:17 | 35.37820 | -80.51439 | 5969 ft | 279 kts | 309° |
| 2026-04-25 21:17 | 35.39125 | -80.53222 | 5977 ft | 284 kts | 309° |
| 2026-04-25 21:17 | 35.40463 | -80.55049 | 5976 ft | 291 kts | 309° |
| 2026-04-25 21:17 | 35.41803 | -80.56886 | 5977 ft | 293 kts | 309° |
| 2026-04-25 21:18 | 35.43146 | -80.58722 | 5977 ft | 286 kts | 308° |
| 2026-04-25 21:18 | 35.44468 | -80.60531 | 5973 ft | 282 kts | 309° |
| 2026-04-25 21:18 | 35.45757 | -80.62295 | 5970 ft | 273 kts | 308° |
| 2026-04-25 21:18 | 35.46825 | -80.63759 | 5981 ft | 271 kts | 308° |
| 2026-04-25 21:20 | 35.47306 | -80.64419 | 5990 ft | 271 kts | 308° |
| 2026-04-25 21:20 | 35.48139 | -80.65563 | 5988 ft | 271 kts | 308° |
| 2026-04-25 21:20 | 35.48191 | -80.65635 | 5988 ft | 271 kts | 308° |
| 2026-04-25 21:20 | 35.49185 | -80.67000 | 5987 ft | 271 kts | 308° |
| 2026-04-25 21:21 | 35.50443 | -80.68731 | 5986 ft | 272 kts | 308° |
| 2026-04-25 21:21 | 35.51705 | -80.70465 | 5985 ft | 272 kts | 308° |
| 2026-04-25 21:21 | 35.52963 | -80.72195 | 5984 ft | 271 kts | 308° |
| 2026-04-25 21:21 | 35.54219 | -80.73923 | 5982 ft | 271 kts | 308° |
| 2026-04-25 21:22 | 35.55473 | -80.75648 | 5979 ft | 271 kts | 308° |
| 2026-04-25 21:22 | 35.56688 | -80.77379 | 5979 ft | 270 kts | 303° |
| 2026-04-25 21:22 | 35.57513 | -80.79413 | 5979 ft | 265 kts | 283° |
| 2026-04-25 21:22 | 35.57602 | -80.81635 | 5982 ft | 261 kts | 258° |
| 2026-04-25 21:23 | 35.56872 | -80.83646 | 5980 ft | 259 kts | 232° |
| 2026-04-25 21:23 | 35.55488 | -80.85045 | 5981 ft | 261 kts | 208° |
| 2026-04-25 21:23 | 35.53723 | -80.85618 | 5981 ft | 264 kts | 192° |
| 2026-04-25 21:23 | 35.52040 | -80.86267 | 5934 ft | 245 kts | 206° |
| 2026-04-25 21:24 | 35.50637 | -80.87290 | 5744 ft | 233 kts | 221° |
| 2026-04-25 21:24 | 35.49455 | -80.88609 | 5468 ft | 228 kts | 226° |
| 2026-04-25 21:24 | 35.48358 | -80.90010 | 5146 ft | 226 kts | 227° |
| 2026-04-25 21:24 | 35.47309 | -80.91447 | 4811 ft | 225 kts | 229° |
| 2026-04-25 21:25 | 35.46285 | -80.92899 | 4568 ft | 224 kts | 230° |
| 2026-04-25 21:25 | 35.45230 | -80.94339 | 4841 ft | 231 kts | 223° |
| 2026-04-25 21:25 | 35.43851 | -80.95297 | 4945 ft | 228 kts | 195° |
| 2026-04-25 21:25 | 35.42273 | -80.95428 | 4671 ft | 228 kts | 180° |
| 2026-04-25 21:26 | 35.40676 | -80.95289 | 4297 ft | 230 kts | 178° |
| 2026-04-25 21:26 | 35.39086 | -80.95114 | 4061 ft | 229 kts | 178° |
| 2026-04-25 21:26 | 35.37545 | -80.94952 | 3992 ft | 215 kts | 178° |
| 2026-04-25 21:26 | 35.36131 | -80.94808 | 3942 ft | 194 kts | 179° |
| 2026-04-25 21:27 | 35.34831 | -80.94684 | 3805 ft | 181 kts | 179° |
| 2026-04-25 21:27 | 35.33592 | -80.94571 | 3583 ft | 176 kts | 179° |
| 2026-04-25 21:27 | 35.32384 | -80.94466 | 3298 ft | 172 kts | 179° |
| 2026-04-25 21:27 | 35.31197 | -80.94363 | 2945 ft | 171 kts | 178° |
| 2026-04-25 21:28 | 35.30003 | -80.94261 | 2555 ft | 172 kts | 179° |
| 2026-04-25 21:28 | 35.28803 | -80.94158 | 2138 ft | 173 kts | 179° |
| 2026-04-25 21:28 | 35.27610 | -80.94055 | 1990 ft | 175 kts | 179° |
| 2026-04-25 21:28 | 35.26443 | -80.93952 | 1954 ft | 156 kts | 180° |
| 2026-04-25 21:29 | 35.25409 | -80.93861 | 1958 ft | 153 kts | 180° |
| 2026-04-25 21:29 | 35.24249 | -80.93752 | 1434 ft | 177 kts | 179° |
| 2026-04-25 21:29 | 35.23037 | -80.93659 | 953 ft | 169 kts | 180° |
| 2026-04-25 21:29 | 35.21899 | -80.93560 | 743 ft | 156 kts | 179° |
| 2026-04-25 21:30 | 35.20916 | -80.93524 | 722 ft | 125 kts | 187° |
| 2026-04-25 21:30 | 35.20228 | -80.93577 | 717 ft | 71 kts | 190° |
| 2026-04-25 21:30 | 35.20131 | -80.93745 | 718 ft | 11 kts | 312° |
| 2026-04-25 21:30 | 35.20152 | -80.93752 | 716 ft | 3 kts | 2° |
| 2026-04-25 21:31 | 35.20179 | -80.93751 | 715 ft | 4 kts | 1° |